Time;durP1;ratioP1;P1;durP2;ratioP2;P2;SDS_P1;SDS_P2;PMS_P1;PMS_P2;Temp;Humidity;BMP_temperature;BMP_pressure;BME280_temperature;BME280_humidity;BME280_pressure;Samples;Min_cycle;Max_cycle;Signal;HPM_P1;HPM_P2
2022/08/23 00:01:29;;;;;;;2.78;1.10;;;;;;;23.13;71.33;100986.84;5012955;28;20045;-68
2022/08/23 00:03:57;;;;;;;1.35;0.90;;;;;;;23.03;71.95;100989.88;5012928;28;20041;-68
2022/08/23 00:06:23;;;;;;;1.70;1.40;;;;;;;23.06;71.68;100987.03;5005742;28;20038;-67
2022/08/23 00:08:50;;;;;;;1.27;1.17;;;;;;;23.14;72.65;100985.66;5012171;28;20573;-67
2022/08/23 00:11:37;;;;;;;2.67;0.77;;;;;;;23.23;71.85;100988.53;5012725;28;20402;-67
2022/08/23 00:14:16;;;;;;;1.58;1.10;;;;;;;23.08;72.03;100990.13;5011670;28;20045;-67
2022/08/23 00:16:43;;;;;;;1.20;1.00;;;;;;;23.16;71.61;100986.00;5011602;28;20037;-68
2022/08/23 00:19:11;;;;;;;2.47;1.10;;;;;;;23.26;71.52;100982.19;5011185;28;20667;-67
2022/08/23 00:21:38;;;;;;;1.63;0.98;;;;;;;23.14;71.98;100988.41;5012209;28;20092;-67
2022/08/23 00:24:08;;;;;;;0.93;0.80;;;;;;;22.99;72.66;100978.97;5006329;28;20033;-67
2022/08/23 00:26:51;;;;;;;1.70;1.00;;;;;;;23.12;72.11;100988.06;5008846;28;20395;-68
2022/08/23 00:29:17;;;;;;;2.65;1.20;;;;;;;23.11;72.14;100989.25;5012897;28;20042;-66
2022/08/23 00:31:44;;;;;;;1.10;1.00;;;;;;;23.13;72.03;100989.59;5008382;28;20096;-66
2022/08/23 00:34:10;;;;;;;2.65;1.15;;;;;;;23.08;72.10;100992.88;5000836;28;20033;-67
2022/08/23 00:36:37;;;;;;;3.42;1.02;;;;;;;22.91;72.84;100990.56;5010894;28;20435;-67
2022/08/23 00:39:03;;;;;;;7.40;1.15;;;;;;;22.94;72.83;100997.94;5011331;28;20030;-67
2022/08/23 00:41:29;;;;;;;4.72;1.02;;;;;;;22.98;73.29;100990.38;4987683;28;20041;-68
2022/08/23 00:49:39;;;;;;;1.10;1.00;;;;;;;22.85;73.42;101003.28;4995160;28;20029;-67
2022/08/23 00:52:28;;;;;;;1.27;1.05;;;;;;;22.94;73.44;101001.47;4991432;28;20041;-68
2022/08/23 00:54:54;;;;;;;2.13;1.20;;;;;;;23.04;73.29;101003.19;5011858;28;20069;-67
2022/08/23 00:57:21;;;;;;;1.40;1.10;;;;;;;23.06;73.11;101000.78;5011660;28;20080;-66
2022/08/23 00:59:47;;;;;;;1.40;0.90;;;;;;;23.09;73.19;100999.91;5007174;28;20052;-67
2022/08/23 01:02:13;;;;;;;1.15;0.98;;;;;;;23.21;72.35;101001.94;4990647;28;20506;-67
2022/08/23 01:04:53;;;;;;;2.17;1.13;;;;;;;22.98;72.83;101007.66;5008887;28;20029;-68
2022/08/23 01:07:21;;;;;;;2.45;0.90;;;;;;;23.15;72.08;101009.16;4990661;28;20049;-66
2022/08/23 01:09:51;;;;;;;1.63;1.02;;;;;;;23.07;72.96;100996.81;4994354;28;20042;-66
2022/08/23 01:12:22;;;;;;;4.22;1.13;;;;;;;23.06;73.30;101005.50;4990260;28;20445;-67
2022/08/23 01:14:56;;;;;;;3.97;1.20;;;;;;;23.13;73.49;101006.09;5011671;28;20092;-67
2022/08/23 01:17:28;;;;;;;3.53;1.10;;;;;;;23.11;72.77;101005.75;5010246;28;20080;-68
2022/08/23 01:20:01;;;;;;;3.13;0.80;;;;;;;22.96;73.48;101012.81;5007583;28;20100;-68
2022/08/23 01:22:45;;;;;;;1.17;1.08;;;;;;;22.89;74.04;101009.47;4989889;28;20050;-68
2022/08/23 01:25:16;;;;;;;0.88;0.80;;;;;;;22.84;73.88;101002.50;5011415;28;20034;-67
2022/08/23 01:27:45;;;;;;;2.17;1.00;;;;;;;22.88;73.76;101003.19;4992633;28;20100;-67
2022/08/23 01:30:17;;;;;;;2.25;1.05;;;;;;;22.87;74.13;101007.16;4990976;28;20044;-67
2022/08/23 01:32:55;;;;;;;1.63;1.20;;;;;;;22.98;73.11;101002.16;4988100;28;20044;-67
2022/08/23 01:35:49;;;;;;;2.85;1.27;;;;;;;22.91;74.31;101005.09;4992765;28;20036;-67
2022/08/23 01:38:15;;;;;;;2.13;1.00;;;;;;;22.95;73.95;100999.50;5003007;28;20041;-68
2022/08/23 01:40:43;;;;;;;2.63;1.30;;;;;;;22.95;74.03;101000.28;4990202;28;20089;-68
2022/08/23 01:43:12;;;;;;;1.75;1.05;;;;;;;22.89;73.93;101002.00;4993549;28;20099;-68
2022/08/23 01:45:39;;;;;;;1.08;0.98;;;;;;;22.82;74.82;101007.66;4993431;28;20436;-67
2022/08/23 01:48:05;;;;;;;2.70;1.60;;;;;;;22.86;74.10;101008.34;4993207;28;20022;-67
2022/08/23 01:50:31;;;;;;;2.97;1.00;;;;;;;22.74;74.76;101005.50;4993233;28;20084;-68
2022/08/23 01:52:57;;;;;;;2.72;1.17;;;;;;;22.80;74.90;101003.81;5011078;28;20746;-67
2022/08/23 01:55:24;;;;;;;3.78;1.13;;;;;;;22.94;73.83;100995.19;4993400;28;20132;-67
2022/08/23 01:57:55;;;;;;;2.85;1.33;;;;;;;22.94;74.49;100998.72;4992385;28;20022;-67
2022/08/23 02:00:31;;;;;;;1.48;1.20;;;;;;;22.94;74.07;100995.97;4989182;28;20034;-68
2022/08/23 02:02:58;;;;;;;2.60;1.30;;;;;;;22.73;75.08;100996.50;4999545;28;20518;-68
2022/08/23 02:05:25;;;;;;;1.67;1.13;;;;;;;22.74;75.02;101000.81;4992866;28;20072;-67
2022/08/23 02:07:50;;;;;;;2.08;1.40;;;;;;;22.79;74.64;100997.53;4991144;28;20034;-66
2022/08/23 02:10:17;;;;;;;1.88;1.30;;;;;;;22.80;74.51;100992.81;4989480;28;20032;-67
2022/08/23 02:12:43;;;;;;;1.20;1.10;;;;;;;22.72;73.97;100992.22;5001038;28;20021;-68
2022/08/23 02:15:14;;;;;;;2.38;1.40;;;;;;;22.66;74.35;101004.13;4992844;28;20644;-67
2022/08/23 02:17:43;;;;;;;1.58;1.02;;;;;;;22.73;74.29;101004.72;4990561;28;20080;-68
2022/08/23 02:20:09;;;;;;;1.67;1.55;;;;;;;22.79;74.22;101008.50;4988934;28;20091;-67
2022/08/23 02:22:38;;;;;;;1.30;1.02;;;;;;;22.76;74.01;101005.84;4988793;28;20033;-68
2022/08/23 02:25:04;;;;;;;1.60;1.27;;;;;;;22.73;74.11;101003.94;4989427;28;20500;-68
2022/08/23 02:27:30;;;;;;;2.72;1.27;;;;;;;22.71;74.58;101009.09;4972365;28;20373;-68
2022/08/23 02:29:55;;;;;;;2.35;1.50;;;;;;;22.75;74.67;101001.56;4992783;28;20037;-68
2022/08/23 02:32:21;;;;;;;2.25;1.50;;;;;;;22.66;74.40;100998.63;4988341;28;20044;-67
2022/08/23 02:35:07;;;;;;;1.50;1.13;;;;;;;22.69;74.14;101004.03;4993479;28;20049;-67
2022/08/23 02:37:34;;;;;;;2.33;1.40;;;;;;;22.64;73.77;101006.53;4903305;29;20386;-68
2022/08/23 02:39:59;;;;;;;2.95;1.50;;;;;;;22.60;73.80;101003.88;4895573;29;20056;-67
2022/08/23 02:42:26;;;;;;;1.98;1.30;;;;;;;22.60;74.18;101003.88;4880414;29;20143;-68
2022/08/23 02:44:52;;;;;;;1.75;1.30;;;;;;;22.46;75.09;101001.41;4899831;29;20178;-66
2022/08/23 02:47:18;;;;;;;1.80;1.38;;;;;;;22.52;75.08;101004.44;4898832;29;20036;-68
2022/08/23 02:49:54;;;;;;;4.07;1.40;;;;;;;22.61;74.70;101007.41;4892508;29;20040;-69
2022/08/23 02:52:20;;;;;;;3.28;1.33;;;;;;;22.64;73.79;101004.56;4895318;29;20043;-69
2022/08/23 02:54:45;;;;;;;1.05;0.95;;;;;;;22.59;74.43;101007.81;4911471;29;20044;-67
2022/08/23 02:57:11;;;;;;;2.10;1.33;;;;;;;22.31;75.21;101005.69;4910316;29;20039;-69
2022/08/23 02:59:37;;;;;;;2.22;1.35;;;;;;;22.33;75.28;101003.28;4895998;29;20066;-69
2022/08/23 03:02:04;;;;;;;3.20;1.27;;;;;;;22.17;76.07;101014.22;4910807;29;20048;-69
2022/08/23 03:04:36;;;;;;;4.30;1.20;;;;;;;22.24;75.64;101014.84;4898299;29;20051;-68
2022/08/23 03:07:01;;;;;;;2.35;1.40;;;;;;;22.24;75.88;101016.84;4894881;29;20032;-69
2022/08/23 03:09:27;;;;;;;2.30;1.20;;;;;;;22.27;75.87;101024.97;4892188;29;20556;-68
2022/08/23 03:11:52;;;;;;;5.03;1.60;;;;;;;22.17;76.28;101017.75;4899506;29;20031;-69
2022/08/23 03:14:19;;;;;;;1.30;1.20;;;;;;;22.30;75.81;101023.34;4925194;28;20081;-70
2022/08/23 03:16:45;;;;;;;1.30;1.20;;;;;;;22.32;74.78;101021.72;5008150;28;20118;-69
2022/08/23 03:19:11;;;;;;;2.30;1.55;;;;;;;22.18;75.33;101013.78;5005893;28;20546;-69
2022/08/23 03:21:37;;;;;;;2.63;1.30;;;;;;;22.22;75.41;101013.75;5008955;28;20493;-69
2022/08/23 03:24:04;;;;;;;3.05;1.45;;;;;;;22.14;75.81;101017.81;4985655;28;20034;-69
2022/08/23 03:26:30;;;;;;;2.35;1.33;;;;;;;22.11;76.43;101008.47;4991037;28;20038;-69
2022/08/23 03:28:56;;;;;;;2.13;1.23;;;;;;;22.23;75.31;101018.00;5006645;28;20088;-68
2022/08/23 03:31:24;;;;;;;1.33;1.20;;;;;;;22.21;75.74;101023.94;4989863;28;20048;-68
2022/08/23 03:34:02;;;;;;;1.30;1.20;;;;;;;22.19;75.52;101022.81;4988181;28;20088;-67
2022/08/23 03:36:28;;;;;;;1.95;1.20;;;;;;;22.03;75.70;101020.78;4990075;28;20037;-68
2022/08/23 03:38:55;;;;;;;3.15;1.38;;;;;;;21.98;76.65;101032.25;4993025;28;20029;-68
2022/08/23 03:41:21;;;;;;;2.97;1.45;;;;;;;22.01;76.08;101030.66;5011406;28;20037;-67
2022/08/23 03:43:47;;;;;;;2.30;1.30;;;;;;;22.08;75.18;101030.50;4991981;28;20116;-68
2022/08/23 03:46:21;;;;;;;3.90;1.70;;;;;;;21.98;75.95;101034.22;4994560;28;20593;-68
2022/08/23 03:48:54;;;;;;;2.15;1.40;;;;;;;21.82;75.59;101034.16;5006784;28;20502;-67
2022/08/23 03:51:22;;;;;;;3.63;1.77;;;;;;;21.79;75.72;101032.22;4994098;28;20490;-68
2022/08/23 03:53:48;;;;;;;1.75;1.33;;;;;;;21.78;75.91;101038.91;4996474;28;20612;-68
2022/08/23 03:56:28;;;;;;;4.70;1.50;;;;;;;21.81;76.36;101033.41;4996121;28;20478;-68
2022/08/23 03:58:55;;;;;;;1.55;1.45;;;;;;;21.94;75.95;101042.53;5004772;28;20034;-68
2022/08/23 04:01:21;;;;;;;2.55;1.33;;;;;;;21.84;75.46;101040.00;4982013;28;20026;-67
2022/08/23 04:03:47;;;;;;;2.53;1.60;;;;;;;22.00;74.65;101046.34;5013235;28;20367;-68
2022/08/23 04:06:14;;;;;;;1.73;1.33;;;;;;;21.90;75.27;101046.53;4989420;28;20038;-68
2022/08/23 04:08:42;;;;;;;1.67;1.33;;;;;;;22.02;74.42;101043.94;4995541;28;20017;-68
2022/08/23 04:11:10;;;;;;;1.77;1.33;;;;;;;21.78;75.00;101049.88;5002973;28;20648;-68
2022/08/23 04:13:38;;;;;;;2.70;1.40;;;;;;;21.73;76.04;101050.38;4995238;28;20038;-68
2022/08/23 04:16:05;;;;;;;2.22;1.27;;;;;;;21.72;75.89;101046.09;4995324;28;20029;-68
2022/08/23 04:18:33;;;;;;;2.17;1.63;;;;;;;21.74;75.29;101049.94;5012145;28;20108;-67
2022/08/23 04:21:03;;;;;;;1.38;1.27;;;;;;;21.75;75.58;101051.50;4988281;28;20038;-67
2022/08/23 04:23:29;;;;;;;2.10;1.45;;;;;;;21.62;74.74;101055.28;4976314;28;20074;-67
2022/08/23 04:25:55;;;;;;;1.95;1.30;;;;;;;21.64;74.98;101055.63;4975452;28;20117;-67
2022/08/23 04:28:21;;;;;;;1.80;1.45;;;;;;;21.72;74.80;101065.28;4976506;28;20117;-67
2022/08/23 04:30:48;;;;;;;2.83;1.38;;;;;;;21.58;76.16;101051.84;4993315;28;20037;-67
2022/08/23 04:33:15;;;;;;;4.03;1.60;;;;;;;21.56;75.40;101057.75;4988943;28;20486;-68
2022/08/23 04:35:40;;;;;;;1.98;1.45;;;;;;;21.49;75.45;101066.84;4997175;28;20037;-68
2022/08/23 04:38:07;;;;;;;2.85;1.77;;;;;;;21.58;74.90;101063.59;4995001;28;20081;-67
2022/08/23 04:43:18;;;;;;;2.17;1.55;;;;;;;21.55;75.26;101073.41;5007552;22;20437;-69
2022/08/23 04:45:44;;;;;;;4.40;1.30;;;;;;;21.55;75.25;101076.16;5012389;28;20034;-68
2022/08/23 04:48:22;;;;;;;2.95;1.30;;;;;;;21.58;75.38;101075.31;5010758;28;20115;-68
2022/08/23 04:50:49;;;;;;;2.75;1.70;;;;;;;21.58;74.79;101078.03;5027573;28;20042;-69
2022/08/23 04:53:19;;;;;;;2.30;1.40;;;;;;;21.63;75.09;101078.75;5001274;28;20394;-68
2022/08/23 04:56:05;;;;;;;2.42;1.33;;;;;;;21.67;75.60;101073.97;5007230;28;20057;-68
2022/08/23 04:58:32;;;;;;;4.55;1.50;;;;;;;21.79;74.43;101084.34;5011080;28;20124;-68
2022/08/23 05:01:03;;;;;;;2.30;1.25;;;;;;;21.82;73.55;101094.50;5005957;28;20085;-69
2022/08/23 05:03:28;;;;;;;3.45;1.17;;;;;;;21.71;73.21;101086.44;5010663;28;20088;-68
2022/08/23 05:05:57;;;;;;;4.68;1.40;;;;;;;21.62;73.53;101091.72;5010146;28;20502;-69
2022/08/23 05:08:28;;;;;;;1.40;1.30;;;;;;;21.71;74.06;101088.41;4995853;28;20024;-68
2022/08/23 05:10:54;;;;;;;1.85;1.27;;;;;;;21.87;73.87;101094.03;5008375;28;20033;-69
2022/08/23 05:13:20;;;;;;;2.50;1.73;;;;;;;21.83;71.85;101096.06;5010918;28;20128;-69
2022/08/23 05:15:45;;;;;;;4.30;1.48;;;;;;;21.54;72.51;101104.00;5008017;28;20105;-68
2022/08/23 05:18:11;;;;;;;1.75;1.27;;;;;;;21.60;72.98;101105.06;5009800;28;20026;-69
2022/08/23 05:20:38;;;;;;;2.00;1.15;;;;;;;21.62;73.21;101101.91;5010804;28;20112;-68
2022/08/23 05:23:04;;;;;;;4.53;1.08;;;;;;;21.68;74.47;101105.72;5006459;28;20124;-70
2022/08/23 05:25:50;;;;;;;4.18;1.20;;;;;;;21.67;73.75;101102.19;5007041;28;20437;-69
2022/08/23 05:28:23;;;;;;;1.85;1.27;;;;;;;21.75;72.24;101114.59;5010860;28;20118;-68
2022/08/23 05:31:08;;;;;;;3.38;1.15;;;;;;;21.82;72.30;101106.25;5010043;28;20041;-69
2022/08/23 05:33:43;;;;;;;1.70;1.23;;;;;;;21.78;74.52;101112.94;5006888;28;20025;-69
2022/08/23 05:36:13;;;;;;;2.45;1.27;;;;;;;21.90;73.83;101106.88;5009232;28;20033;-69
2022/08/23 05:38:39;;;;;;;5.32;1.73;;;;;;;22.00;73.51;101106.69;5012020;28;20791;-69
2022/08/23 05:41:08;;;;;;;2.00;1.38;;;;;;;22.04;73.79;101096.44;5006322;28;20052;-68
2022/08/23 05:43:34;;;;;;;2.78;1.35;;;;;;;22.04;71.90;101109.38;5000575;28;20026;-69
2022/08/23 05:46:06;;;;;;;1.23;1.13;;;;;;;22.04;71.06;101107.41;5009912;28;20040;-69
2022/08/23 05:48:38;;;;;;;1.55;1.10;;;;;;;22.03;70.18;101107.81;5008037;28;20025;-69
2022/08/23 05:51:13;;;;;;;1.20;1.00;;;;;;;22.12;71.72;101113.53;5010156;28;20395;-69
2022/08/23 05:53:41;;;;;;;1.70;1.08;;;;;;;22.30;70.91;101111.97;5010524;28;20029;-69
2022/08/23 05:56:27;;;;;;;2.67;1.20;;;;;;;22.35;70.05;101116.19;5003286;28;20101;-69
2022/08/23 05:58:55;;;;;;;2.50;1.40;;;;;;;22.43;70.59;101129.34;4996777;28;20029;-68
2022/08/23 06:01:21;;;;;;;1.45;1.10;;;;;;;22.45;67.92;101128.94;5009498;28;20029;-68
2022/08/23 06:03:50;;;;;;;1.25;1.00;;;;;;;22.59;68.07;101136.88;5009336;28;20029;-69
2022/08/23 06:06:16;;;;;;;1.83;1.02;;;;;;;22.68;67.03;101126.13;5009138;28;20033;-69
2022/08/23 06:08:45;;;;;;;1.80;1.10;;;;;;;22.90;66.76;101132.66;5006980;28;20065;-69
2022/08/23 06:11:18;;;;;;;3.63;1.30;;;;;;;22.89;66.32;101130.34;5006771;28;20040;-68
2022/08/23 06:13:58;;;;;;;3.00;1.02;;;;;;;23.04;64.71;101128.81;5009405;28;20060;-69
2022/08/23 06:16:30;;;;;;;1.02;0.93;;;;;;;23.20;64.19;101128.84;5006963;28;20083;-68
2022/08/23 06:18:57;;;;;;;1.10;1.00;;;;;;;23.24;63.68;101132.28;5021310;28;20030;-68
2022/08/23 06:21:55;;;;;;;3.67;1.08;;;;;;;23.48;63.82;101133.66;4985262;28;20506;-69
2022/08/23 06:24:32;;;;;;;1.40;1.00;;;;;;;23.52;61.53;101137.09;4991842;28;20053;-68
2022/08/23 06:27:11;;;;;;;2.85;1.05;;;;;;;23.44;60.16;101138.47;5006047;28;20502;-68
2022/08/23 06:29:37;;;;;;;2.67;1.00;;;;;;;23.69;61.68;101143.38;5007052;28;20521;-69
2022/08/23 06:32:38;;;;;;;1.35;0.85;;;;;;;23.60;60.11;101140.44;4986882;28;20030;-69
2022/08/23 06:35:22;;;;;;;1.50;0.82;;;;;;;24.05;58.46;101147.53;5009190;28;20127;-69
2022/08/23 06:38:05;;;;;;;1.95;1.10;;;;;;;24.33;58.67;101153.47;5009347;28;20555;-68
2022/08/23 06:40:49;;;;;;;1.55;1.10;;;;;;;24.35;58.56;101143.53;5009196;28;20095;-68
2022/08/23 06:43:24;;;;;;;1.98;0.90;;;;;;;24.43;57.72;101144.88;5004848;28;20052;-69
2022/08/23 06:46:12;;;;;;;1.35;0.88;;;;;;;24.78;57.56;101157.66;5010053;28;20026;-69
2022/08/23 06:48:38;;;;;;;1.52;0.90;;;;;;;24.70;55.24;101153.53;5008663;28;20030;-69
2022/08/23 06:51:21;;;;;;;2.15;0.80;;;;;;;24.66;56.04;101152.88;5011042;28;20032;-69
2022/08/23 06:54:07;;;;;;;;;;;;;;;24.89;56.94;101163.63;5011860;28;20080;-69
2022/08/23 06:56:47;;;;;;;1.33;0.90;;;;;;;24.57;56.09;101154.72;5014808;28;19920;-69
2022/08/23 06:59:17;;;;;;;1.60;0.95;;;;;;;24.29;57.05;101161.06;5010320;28;20044;-70
2022/08/23 07:02:05;;;;;;;1.45;1.00;;;;;;;24.48;56.97;101158.13;4997108;28;20101;-69
2022/08/23 07:04:52;;;;;;;1.48;1.10;;;;;;;24.41;57.13;101163.84;4991637;28;20049;-69
2022/08/23 07:07:47;;;;;;;0.98;0.88;;;;;;;24.29;56.44;101161.84;4986212;28;20034;-70
2022/08/23 07:10:13;;;;;;;1.25;1.05;;;;;;;23.99;57.76;101153.97;4997132;28;20133;-69
2022/08/23 07:12:41;;;;;;;1.25;0.88;;;;;;;23.76;58.63;101157.72;5009932;28;20030;-69
2022/08/23 07:15:08;;;;;;;1.08;0.75;;;;;;;23.47;60.08;101156.09;5011879;28;20029;-69
2022/08/23 07:17:34;;;;;;;1.00;0.80;;;;;;;23.89;59.71;101163.28;5013568;28;20033;-69
2022/08/23 07:19:59;;;;;;;1.15;0.95;;;;;;;24.08;59.51;101163.16;5013603;28;20038;-69
2022/08/23 07:22:25;;;;;;;2.60;0.88;;;;;;;24.50;59.73;101157.69;5013601;28;20060;-69
2022/08/23 07:24:51;;;;;;;0.73;0.73;;;;;;;24.90;58.49;101159.66;5013726;28;20060;-69
2022/08/23 07:27:19;;;;;;;1.92;0.93;;;;;;;25.33;57.17;101161.84;5010095;28;20463;-69
2022/08/23 07:30:01;;;;;;;;;;;;;;;25.39;55.35;101157.34;5012404;28;20060;-68
2022/08/23 07:32:28;;;;;;;1.30;1.00;;;;;;;25.66;56.16;101162.38;5012489;28;19913;-69
2022/08/23 07:34:57;;;;;;;1.20;1.00;;;;;;;25.94;54.77;101161.38;5013250;28;20053;-69
2022/08/23 07:37:23;;;;;;;1.85;1.10;;;;;;;25.68;53.78;101168.22;5012832;28;20068;-69
2022/08/23 07:39:49;;;;;;;2.20;0.85;;;;;;;25.54;54.01;101163.94;5012797;28;20033;-69
2022/08/23 07:42:15;;;;;;;6.50;0.82;;;;;;;25.91;53.72;101167.81;5005064;28;20034;-69
2022/08/23 07:44:42;;;;;;;1.10;0.80;;;;;;;26.25;52.73;101173.34;5012059;28;20026;-69
2022/08/23 07:47:07;;;;;;;1.38;0.85;;;;;;;26.43;51.80;101176.22;5012051;28;20033;-68
2022/08/23 07:49:33;;;;;;;1.75;0.90;;;;;;;26.60;51.29;101180.31;5010880;28;20426;-69
2022/08/23 07:52:01;;;;;;;0.75;0.70;;;;;;;26.75;50.60;101170.31;5014328;28;20506;-69
2022/08/23 07:54:27;;;;;;;1.67;1.00;;;;;;;26.88;50.44;101175.75;5012693;28;20157;-69
2022/08/23 07:57:01;;;;;;;1.90;0.68;;;;;;;26.84;49.83;101177.88;5011333;28;20030;-68
2022/08/23 08:00:05;;;;;;;1.83;0.70;;;;;;;27.01;49.91;101179.19;4971773;28;20042;-69
2022/08/23 08:02:40;;;;;;;1.63;0.80;;;;;;;26.88;48.83;101180.50;4964450;28;20035;-68
2022/08/23 08:05:13;;;;;;;3.53;0.77;;;;;;;26.71;49.18;101179.97;4995592;28;20049;-68
2022/08/23 08:07:39;;;;;;;1.05;0.60;;;;;;;26.42;49.29;101180.19;4994860;28;20025;-68
2022/08/23 08:10:05;;;;;;;1.23;0.70;;;;;;;26.77;49.66;101189.97;5003106;28;20041;-68
2022/08/23 08:12:32;;;;;;;1.05;0.60;;;;;;;26.78;49.35;101182.47;5028317;28;20038;-68
2022/08/23 08:15:03;;;;;;;0.88;0.63;;;;;;;26.92;49.97;101184.69;5009972;28;20025;-69
2022/08/23 08:17:36;;;;;;;2.58;1.05;;;;;;;26.98;49.56;101176.56;5003218;28;20402;-69
2022/08/23 08:20:34;;;;;;;0.50;0.50;;;;;;;27.09;48.89;101177.69;5013095;28;20050;-68
2022/08/23 08:23:19;;;;;;;0.73;0.60;;;;;;;27.61;49.44;101179.56;4982400;28;20052;-69
2022/08/23 08:26:06;;;;;;;1.02;0.50;;;;;;;27.54;48.56;101179.84;4993357;28;20056;-68
2022/08/23 08:28:34;;;;;;;0.43;0.43;;;;;;;27.80;48.43;101166.50;5002256;28;20029;-69
2022/08/23 08:31:01;;;;;;;1.30;0.60;;;;;;;27.98;48.27;101180.38;5011105;28;20099;-68
2022/08/23 08:33:29;;;;;;;1.15;0.60;;;;;;;27.93;47.97;101189.28;5011689;28;20417;-69
2022/08/23 08:35:56;;;;;;;0.98;0.65;;;;;;;28.12;49.00;101185.31;4990427;28;20077;-68
2022/08/23 08:38:21;;;;;;;0.60;0.60;;;;;;;28.08;48.52;101188.25;5011453;28;20038;-69
2022/08/23 08:41:06;;;;;;;0.60;0.57;;;;;;;28.33;48.76;101185.16;5009545;28;20537;-69
2022/08/23 08:44:06;;;;;;;1.20;0.80;;;;;;;28.46;48.19;101185.75;5009246;28;20038;-69
2022/08/23 08:46:41;;;;;;;0.85;0.80;;;;;;;28.79;47.35;101193.41;4993011;28;20034;-69
2022/08/23 08:49:13;;;;;;;0.75;0.70;;;;;;;28.87;47.65;101191.84;4992001;28;20085;-69
2022/08/23 08:52:11;;;;;;;0.77;0.73;;;;;;;28.89;47.84;101194.91;5006553;28;20446;-70
2022/08/23 08:54:38;;;;;;;0.75;0.60;;;;;;;29.18;46.81;101197.91;5003871;28;20030;-68
2022/08/23 08:57:07;;;;;;;1.00;0.70;;;;;;;29.45;47.21;101188.66;5010599;28;20026;-68
2022/08/23 08:59:59;;;;;;;1.63;1.02;;;;;;;29.63;46.42;101194.91;5011255;28;20136;-69
2022/08/23 09:02:33;;;;;;;0.80;0.80;;;;;;;29.77;46.34;101201.78;5005959;28;20044;-70
2022/08/23 09:05:13;;;;;;;0.65;0.60;;;;;;;29.60;45.79;101189.53;5004963;28;20041;-69
2022/08/23 09:07:47;;;;;;;1.00;0.85;;;;;;;29.71;46.44;101196.09;4990975;28;20034;-69
2022/08/23 09:10:27;;;;;;;2.20;0.80;;;;;;;30.00;46.39;101201.00;4991916;28;20375;-69
2022/08/23 09:13:29;;;;;;;0.98;0.80;;;;;;;30.22;45.00;101209.75;4997213;28;20033;-69
2022/08/23 09:16:07;;;;;;;1.20;0.50;;;;;;;30.28;44.59;101207.88;5004894;28;20076;-69
2022/08/23 09:18:34;;;;;;;1.67;0.80;;;;;;;30.32;44.20;101199.34;5010963;28;20557;-69
2022/08/23 09:21:02;;;;;;;0.80;0.80;;;;;;;30.48;45.17;101196.88;5006886;28;20030;-69
2022/08/23 09:23:49;;;;;;;0.60;0.60;;;;;;;30.53;44.10;101204.53;5007950;28;20038;-69
2022/08/23 09:26:26;;;;;;;0.63;0.63;;;;;;;30.81;43.95;101194.66;5006818;28;20112;-70
2022/08/23 09:28:58;;;;;;;1.20;0.60;;;;;;;31.15;44.47;101190.41;5008256;28;20030;-69
2022/08/23 09:31:43;;;;;;;1.08;0.80;;;;;;;31.42;43.12;101189.28;5007492;28;20026;-69
2022/08/23 09:34:35;;;;;;;1.20;0.60;;;;;;;31.56;43.44;101202.41;5002561;28;20526;-69
2022/08/23 09:37:10;;;;;;;1.85;0.73;;;;;;;31.50;42.34;101196.75;5028903;28;20029;-69
2022/08/23 09:39:46;;;;;;;0.82;0.82;;;;;;;31.52;42.58;101194.25;5007530;28;20030;-69
2022/08/23 09:42:31;;;;;;;0.82;0.55;;;;;;;31.22;42.70;101189.25;5007955;28;20110;-69
2022/08/23 09:44:58;;;;;;;1.13;0.80;;;;;;;31.38;43.47;101189.50;5010239;28;20041;-69
2022/08/23 09:47:40;;;;;;;0.70;0.65;;;;;;;31.22;42.99;101186.47;4998936;28;20030;-69
2022/08/23 09:50:24;;;;;;;1.30;0.60;;;;;;;31.72;43.40;101183.13;5010166;28;20029;-69
2022/08/23 09:53:05;;;;;;;1.48;0.70;;;;;;;31.59;41.63;101182.69;5015506;28;20120;-70
2022/08/23 09:55:54;;;;;;;1.05;0.60;;;;;;;31.63;42.81;101177.69;5009074;28;20037;-69
2022/08/23 09:58:42;;;;;;;0.63;0.63;;;;;;;31.67;40.92;101180.25;5009175;28;20081;-69
2022/08/23 10:01:24;;;;;;;0.50;0.50;;;;;;;31.33;42.24;101181.03;5009854;28;20065;-69
2022/08/23 10:04:13;;;;;;;1.52;0.60;;;;;;;31.13;41.67;101178.22;4990631;28;20402;-69
2022/08/23 10:06:42;;;;;;;0.60;0.50;;;;;;;30.85;43.45;101173.00;4989834;28;20089;-68
2022/08/23 10:09:20;;;;;;;0.63;0.60;;;;;;;30.86;42.27;101173.75;4988010;28;20563;-69
2022/08/23 10:11:45;;;;;;;0.60;0.57;;;;;;;31.23;42.77;101169.25;5008299;28;20029;-69
2022/08/23 10:14:16;;;;;;;1.20;0.63;;;;;;;31.38;41.61;101169.25;5009970;28;20383;-69
2022/08/23 10:17:00;;;;;;;0.47;0.40;;;;;;;31.37;41.72;101176.84;5006179;28;20041;-69
2022/08/23 10:19:51;;;;;;;0.70;0.60;;;;;;;31.72;40.48;101163.63;5008475;28;20036;-70
2022/08/23 10:22:26;;;;;;;0.95;0.40;;;;;;;31.95;41.20;101173.03;5009370;28;20033;-70
2022/08/23 10:25:53;;;;;;;1.60;0.82;;;;;;;31.77;40.07;101167.72;5010557;28;20049;-69
2022/08/23 10:32:11;;;;;;;0.50;0.50;;;;;;;32.47;39.31;101169.03;4990358;28;20042;-70
2022/08/23 10:35:28;;;;;;;0.57;0.40;;;;;;;32.65;39.15;101153.97;4988312;28;20042;-70
2022/08/23 10:38:18;;;;;;;0.50;0.43;;;;;;;33.05;38.22;101153.75;5009205;28;20042;-70
2022/08/23 10:41:04;;;;;;;4.00;0.50;;;;;;;33.24;37.85;101148.53;5024532;28;20088;-70
2022/08/23 10:43:56;;;;;;;0.85;0.47;;;;;;;33.40;38.22;101143.03;5032542;22;20041;-66
2022/08/23 10:46:23;;;;;;;0.40;0.30;;;;;;;33.57;37.70;101149.50;5027665;28;20045;-66
2022/08/23 10:48:53;;;;;;;0.63;0.50;;;;;;;33.45;37.11;101147.88;5045828;28;20029;-66
2022/08/23 10:51:38;;;;;;;0.98;0.40;;;;;;;33.59;36.07;101155.34;5048100;28;20045;-65
2022/08/23 10:54:08;;;;;;;0.22;0.20;;;;;;;33.72;36.34;101148.53;5030746;28;20057;-66
2022/08/23 10:56:35;;;;;;;0.30;0.30;;;;;;;33.96;36.47;101143.25;5032269;28;20029;-66
2022/08/23 10:59:13;;;;;;;0.20;0.20;;;;;;;34.04;35.93;101149.91;5030899;28;20029;-65
2022/08/23 11:01:49;;;;;;;0.40;0.40;;;;;;;34.00;34.79;101143.81;5032720;28;20068;-67
2022/08/23 11:04:32;;;;;;;1.50;0.40;;;;;;;33.79;35.50;101142.44;5017208;28;20382;-65
2022/08/23 11:07:27;;;;;;;0.30;0.28;;;;;;;33.81;34.92;101134.31;5022787;28;20038;-65
2022/08/23 11:10:06;;;;;;;0.40;0.20;;;;;;;33.79;35.38;101142.44;5029504;28;20060;-66
2022/08/23 11:12:48;;;;;;;0.32;0.30;;;;;;;33.12;35.80;101147.69;5026488;28;20493;-65
2022/08/23 11:15:23;;;;;;;0.55;0.30;;;;;;;33.40;36.12;101139.47;5035573;28;20128;-66
2022/08/23 11:17:49;;;;;;;0.70;0.40;;;;;;;33.69;35.21;101134.31;5029924;28;20460;-65
2022/08/23 11:20:49;;;;;;;2.60;0.32;;;;;;;34.03;35.53;101137.22;5050753;28;20056;-66
2022/08/23 11:23:37;;;;;;;0.28;0.28;;;;;;;34.08;35.42;101136.44;5036682;28;20064;-66
2022/08/23 11:26:06;;;;;;;1.08;0.40;;;;;;;33.60;34.50;101120.53;5018878;28;20032;-67
2022/08/23 11:28:37;;;;;;;0.85;0.30;;;;;;;33.94;34.78;101129.00;5035629;28;20119;-66
2022/08/23 11:31:07;;;;;;;0.52;0.20;;;;;;;34.27;35.55;101132.66;5036263;28;20037;-66
2022/08/23 11:33:57;;;;;;;0.63;0.47;;;;;;;34.46;34.72;101133.72;5036460;28;20393;-66
2022/08/23 11:36:25;;;;;;;0.47;0.35;;;;;;;34.47;34.38;101142.88;5033263;28;20030;-65
2022/08/23 11:38:51;;;;;;;0.45;0.30;;;;;;;34.55;33.87;101135.50;5016164;28;20056;-67
2022/08/23 11:41:35;;;;;;;0.28;0.25;;;;;;;34.16;33.88;101134.69;5034602;28;20039;-66
2022/08/23 11:44:01;;;;;;;0.63;0.32;;;;;;;34.28;34.09;101139.78;5028809;28;20111;-65
2022/08/23 11:46:30;;;;;;;0.63;0.38;;;;;;;34.32;33.69;101145.88;5052195;28;20470;-67
2022/08/23 11:49:28;;;;;;;0.32;0.30;;;;;;;34.24;33.62;101138.53;5035979;28;20025;-65
2022/08/23 11:52:07;;;;;;;0.60;0.40;;;;;;;34.49;34.74;101143.91;5045860;28;20032;-66
2022/08/23 11:54:51;;;;;;;0.50;0.40;;;;;;;34.57;33.48;101132.97;5033879;28;20044;-66
2022/08/23 11:57:32;;;;;;;0.35;0.30;;;;;;;34.87;34.30;101136.75;5033030;28;20550;-67
2022/08/23 12:00:24;;;;;;;;;;;;;;;34.52;33.55;101125.31;5031631;28;20037;-66
2022/08/23 12:03:23;;;;;;;0.57;0.47;;;;;;;34.51;34.18;101135.00;5034442;28;19949;-66
2022/08/23 12:05:51;;;;;;;0.25;0.20;;;;;;;34.46;33.41;101128.13;5052808;28;20094;-66
2022/08/23 12:08:21;;;;;;;0.73;0.30;;;;;;;34.49;33.42;101132.72;5052835;28;20029;-66